Nantucket Memorial Airport Nantucket US
ICAO: KACK
IATA: ACK
Category: Medium
Scheduled Services: Yes

Elevation: 47 ft
TransAlt. 18000 ft.

Airport Communications:
CAPE APP/DEP:126.1
ATIS:127.5
CLNC DEL:119.375
CTAF:118.3
GND:121.7
BRIDGEPORT RDO:116.2
TWR:118.3
UNICOM:122.95

KACK Zoom In..

Runways:

(A) RW 06 length 6303 ft width 150 ft
ILS 109.10 / hdg 61

(B) RW 12 length 2696 ft width 50 ft
---- / hdg 123

(C) RW 15 length 4500 ft width 100 ft
---- / hdg 151

(D) RW 24 length 6303 ft width 150 ft
ILS 109.10 / hdg 241

(E) RW 30 length 2696 ft width 50 ft
---- / hdg 303

(F) RW 33 length 4500 ft width 100 ft
---- / hdg 331

Location; KACK
Day. 23 / Time. 21.56 Zulu
* Altimeter: 29.59
* Temperature: 09° c. 48.2°f.
* Wind from: 200° Speed 18 kn with Gusts up to 27 kn.
Dewpoint: 09° c.
Visibility: 2 m.
Clouds: Broken 400 ft.
Conditions: Mist.

KACK 232156Z 20018G27KT 2 1/2SM BR BKN004 09/09 A2959 RMK AO2 PK WND 21027/2156 T00940094


Wind From 200°
Speed 18 kn.

YouTube Music Video
 
jpsmedia.com for Web Design  worldairports.se 2018   terms of use